sensor_id;sensor_type;location;lat;lon;timestamp;pressure;altitude;pressure_sealevel;temperature;humidity
56671;BME280;42545;50.054;8.306;2023-05-25T00:00:58;100627.22;;;9.22;83.95
56671;BME280;42545;50.054;8.306;2023-05-25T00:03:25;100636.84;;;9.21;84.34
56671;BME280;42545;50.054;8.306;2023-05-25T00:05:52;100630.75;;;9.22;84.60
56671;BME280;42545;50.054;8.306;2023-05-25T00:08:19;100633.38;;;9.22;84.68
56671;BME280;42545;50.054;8.306;2023-05-25T00:10:47;100630.78;;;9.24;85.18
56671;BME280;42545;50.054;8.306;2023-05-25T00:13:14;100625.53;;;9.24;85.19
56671;BME280;42545;50.054;8.306;2023-05-25T00:15:40;100629.94;;;9.25;85.44
56671;BME280;42545;50.054;8.306;2023-05-25T00:18:07;100631.72;;;9.26;85.71
56671;BME280;42545;50.054;8.306;2023-05-25T00:20:33;100622.03;;;9.25;85.63
56671;BME280;42545;50.054;8.306;2023-05-25T00:23:00;100629.03;;;9.24;85.97
56671;BME280;42545;50.054;8.306;2023-05-25T00:25:28;100619.34;;;9.23;86.02
56671;BME280;42545;50.054;8.306;2023-05-25T00:27:56;100618.47;;;9.23;86.15
56671;BME280;42545;50.054;8.306;2023-05-25T00:30:23;100617.56;;;9.22;86.37
56671;BME280;42545;50.054;8.306;2023-05-25T00:32:50;100611.44;;;9.22;86.50
56671;BME280;42545;50.054;8.306;2023-05-25T00:35:18;100611.38;;;9.20;86.64
56671;BME280;42545;50.054;8.306;2023-05-25T00:37:44;100615.69;;;9.18;86.83
56671;BME280;42545;50.054;8.306;2023-05-25T00:40:13;100614.78;;;9.18;87.10
56671;BME280;42545;50.054;8.306;2023-05-25T00:42:41;100611.22;;;9.16;87.18
56671;BME280;42545;50.054;8.306;2023-05-25T00:45:10;100619.97;;;9.15;87.57
56671;BME280;42545;50.054;8.306;2023-05-25T00:47:38;100617.28;;;9.13;87.77
56671;BME280;42545;50.054;8.306;2023-05-25T00:50:08;100613.72;;;9.11;87.85
56671;BME280;42545;50.054;8.306;2023-05-25T00:52:35;100611.09;;;9.11;88.13
56671;BME280;42545;50.054;8.306;2023-05-25T00:55:02;100612.81;;;9.11;88.11
56671;BME280;42545;50.054;8.306;2023-05-25T00:57:30;100615.41;;;9.09;88.27
56671;BME280;42545;50.054;8.306;2023-05-25T01:00:02;100611.88;;;9.09;88.49
56671;BME280;42545;50.054;8.306;2023-05-25T01:02:34;100613.63;;;9.08;88.49
56671;BME280;42545;50.054;8.306;2023-05-25T01:05:05;100613.63;;;9.08;88.54
56671;BME280;42545;50.054;8.306;2023-05-25T01:07:35;100608.34;;;9.08;88.60
56671;BME280;42545;50.054;8.306;2023-05-25T01:10:05;100613.56;;;9.07;88.58
56671;BME280;42545;50.054;8.306;2023-05-25T01:12:36;100604.69;;;9.03;88.60
56671;BME280;42545;50.054;8.306;2023-05-25T01:15:04;100609.13;;;9.04;88.90
56671;BME280;42545;50.054;8.306;2023-05-25T01:17:32;100614.31;;;9.02;88.98
56671;BME280;42545;50.054;8.306;2023-05-25T01:20:03;100611.59;;;8.99;89.39
56671;BME280;42545;50.054;8.306;2023-05-25T01:22:36;100620.28;;;8.97;89.53
56671;BME280;42545;50.054;8.306;2023-05-25T01:25:08;100617.53;;;8.94;89.64
56671;BME280;42545;50.054;8.306;2023-05-25T01:27:39;100619.25;;;8.92;89.89
56671;BME280;42545;50.054;8.306;2023-05-25T01:30:13;100620.06;;;8.89;90.08
56671;BME280;42545;50.054;8.306;2023-05-25T01:32:41;100626.13;;;8.88;90.15
56671;BME280;42545;50.054;8.306;2023-05-25T01:35:09;100625.25;;;8.88;90.50
56671;BME280;42545;50.054;8.306;2023-05-25T01:37:44;100616.38;;;8.84;90.57
56671;BME280;42545;50.054;8.306;2023-05-25T01:40:11;100620.75;;;8.83;90.69
56671;BME280;42545;50.054;8.306;2023-05-25T01:42:38;100630.41;;;8.84;90.79
56671;BME280;42545;50.054;8.306;2023-05-25T01:45:07;100630.41;;;8.84;90.79
56671;BME280;42545;50.054;8.306;2023-05-25T01:47:39;100625.03;;;8.81;90.98
56671;BME280;42545;50.054;8.306;2023-05-25T01:50:14;100630.28;;;8.80;91.34
56671;BME280;42545;50.054;8.306;2023-05-25T01:52:50;100632.81;;;8.77;91.34
56671;BME280;42545;50.054;8.306;2023-05-25T01:55:21;100638.00;;;8.75;91.52
56671;BME280;42545;50.054;8.306;2023-05-25T01:57:52;100624.66;;;8.69;91.38
56671;BME280;42545;50.054;8.306;2023-05-25T02:00:23;100633.50;;;8.71;91.65
56671;BME280;42545;50.054;8.306;2023-05-25T02:02:51;100631.63;;;8.69;91.95
56671;BME280;42545;50.054;8.306;2023-05-25T02:05:19;100635.13;;;8.68;92.01
56671;BME280;42545;50.054;8.306;2023-05-25T02:07:47;100636.81;;;8.65;92.04
56671;BME280;42545;50.054;8.306;2023-05-25T02:10:14;100630.50;;;8.60;92.19
56671;BME280;42545;50.054;8.306;2023-05-25T02:12:41;100637.50;;;8.60;92.42
56671;BME280;42545;50.054;8.306;2023-05-25T02:15:09;100633.88;;;8.56;92.60
56671;BME280;42545;50.054;8.306;2023-05-25T02:17:36;100646.09;;;8.54;92.69
56671;BME280;42545;50.054;8.306;2023-05-25T02:20:04;100633.72;;;8.52;92.83
56671;BME280;42545;50.054;8.306;2023-05-25T02:22:32;100636.19;;;8.47;92.91
56671;BME280;42545;50.054;8.306;2023-05-25T02:25:01;100636.16;;;8.45;93.08
56671;BME280;42545;50.054;8.306;2023-05-25T02:27:27;100636.91;;;8.43;93.20
56671;BME280;42545;50.054;8.306;2023-05-25T02:29:54;100624.47;;;8.39;93.57
56671;BME280;42545;50.054;8.306;2023-05-25T02:32:21;100622.72;;;8.38;93.60
56671;BME280;42545;50.054;8.306;2023-05-25T02:34:48;100632.31;;;8.37;93.48
56671;BME280;42545;50.054;8.306;2023-05-25T02:37:15;100627.00;;;8.36;93.64
56671;BME280;42545;50.054;8.306;2023-05-25T02:39:42;100624.34;;;8.36;93.71
56671;BME280;42545;50.054;8.306;2023-05-25T02:42:10;100609.34;;;8.32;93.91
56671;BME280;42545;50.054;8.306;2023-05-25T02:44:36;100619.06;;;8.34;94.31
56671;BME280;42545;50.054;8.306;2023-05-25T02:47:03;100605.94;;;8.34;94.14
56671;BME280;42545;50.054;8.306;2023-05-25T02:49:30;100616.34;;;8.31;94.29
56671;BME280;42545;50.054;8.306;2023-05-25T02:51:58;100612.69;;;8.27;94.64
56671;BME280;42545;50.054;8.306;2023-05-25T02:54:25;100611.69;;;8.24;94.74
56671;BME280;42545;50.054;8.306;2023-05-25T02:56:51;100617.84;;;8.24;95.59
56671;BME280;42545;50.054;8.306;2023-05-25T02:59:19;100619.69;;;8.27;95.53
56671;BME280;42545;50.054;8.306;2023-05-25T03:01:46;100611.81;;;8.27;94.83
56671;BME280;42545;50.054;8.306;2023-05-25T03:04:12;100620.66;;;8.29;94.74
56671;BME280;42545;50.054;8.306;2023-05-25T03:06:39;100624.16;;;8.30;94.35
56671;BME280;42545;50.054;8.306;2023-05-25T03:09:06;100616.22;;;8.28;94.43
56671;BME280;42545;50.054;8.306;2023-05-25T03:11:33;100627.63;;;8.28;94.35
56671;BME280;42545;50.054;8.306;2023-05-25T03:14:00;100622.34;;;8.28;94.46
56671;BME280;42545;50.054;8.306;2023-05-25T03:16:28;100621.47;;;8.28;94.68
56671;BME280;42545;50.054;8.306;2023-05-25T03:18:55;100635.56;;;8.30;94.69
56671;BME280;42545;50.054;8.306;2023-05-25T03:21:22;100637.38;;;8.31;94.82
56671;BME280;42545;50.054;8.306;2023-05-25T03:23:48;100636.47;;;8.31;94.74
56671;BME280;42545;50.054;8.306;2023-05-25T03:26:15;100636.50;;;8.32;94.79
56671;BME280;42545;50.054;8.306;2023-05-25T03:28:42;100632.09;;;8.31;95.21
56671;BME280;42545;50.054;8.306;2023-05-25T03:31:09;100634.78;;;8.33;95.25
56671;BME280;42545;50.054;8.306;2023-05-25T03:33:38;100643.50;;;8.32;95.51
56671;BME280;42545;50.054;8.306;2023-05-25T03:36:06;100644.31;;;8.29;95.25
56671;BME280;42545;50.054;8.306;2023-05-25T03:38:33;100635.31;;;8.22;95.20
56671;BME280;42545;50.054;8.306;2023-05-25T03:41:00;100644.06;;;8.21;95.50
56671;BME280;42545;50.054;8.306;2023-05-25T03:43:26;100639.69;;;8.22;95.87
56671;BME280;42545;50.054;8.306;2023-05-25T03:45:53;100631.78;;;8.22;95.63
56671;BME280;42545;50.054;8.306;2023-05-25T03:48:19;100643.25;;;8.24;95.76
56671;BME280;42545;50.054;8.306;2023-05-25T03:50:48;100635.38;;;8.24;95.12
56671;BME280;42545;50.054;8.306;2023-05-25T03:53:14;100646.75;;;8.24;94.91
56671;BME280;42545;50.054;8.306;2023-05-25T03:55:41;100638.94;;;8.26;95.43
56671;BME280;42545;50.054;8.306;2023-05-25T03:58:08;100644.31;;;8.29;95.41
56671;BME280;42545;50.054;8.306;2023-05-25T04:00:35;100647.03;;;8.32;95.15
56671;BME280;42545;50.054;8.306;2023-05-25T04:03:02;100651.50;;;8.35;94.88
56671;BME280;42545;50.054;8.306;2023-05-25T04:05:28;100648.94;;;8.36;94.83
56671;BME280;42545;50.054;8.306;2023-05-25T04:07:56;100646.25;;;8.35;95.02
56671;BME280;42545;50.054;8.306;2023-05-25T04:10:23;100658.66;;;8.39;94.88
56671;BME280;42545;50.054;8.306;2023-05-25T04:12:50;100659.59;;;8.41;95.17
56671;BME280;42545;50.054;8.306;2023-05-25T04:15:20;100667.59;;;8.42;95.24
56671;BME280;42545;50.054;8.306;2023-05-25T04:17:47;100666.84;;;8.46;95.34
56671;BME280;42545;50.054;8.306;2023-05-25T04:20:14;100670.53;;;8.52;94.89
56671;BME280;42545;50.054;8.306;2023-05-25T04:22:41;100668.03;;;8.55;94.73
56671;BME280;42545;50.054;8.306;2023-05-25T04:25:10;100663.81;;;8.60;94.14
56671;BME280;42545;50.054;8.306;2023-05-25T04:27:37;100671.91;;;8.66;94.18
56671;BME280;42545;50.054;8.306;2023-05-25T04:30:04;100672.91;;;8.70;93.89
56671;BME280;42545;50.054;8.306;2023-05-25T04:32:31;100673.78;;;8.70;93.66
56671;BME280;42545;50.054;8.306;2023-05-25T04:35:01;100678.28;;;8.73;93.72
56671;BME280;42545;50.054;8.306;2023-05-25T04:37:28;100683.78;;;8.80;93.20
56671;BME280;42545;50.054;8.306;2023-05-25T04:39:54;100682.16;;;8.84;92.78
56671;BME280;42545;50.054;8.306;2023-05-25T04:42:23;100686.63;;;8.87;92.51
56671;BME280;42545;50.054;8.306;2023-05-25T04:44:50;100692.06;;;8.91;91.93
56671;BME280;42545;50.054;8.306;2023-05-25T04:47:17;100693.88;;;8.94;91.90
56671;BME280;42545;50.054;8.306;2023-05-25T04:49:44;100700.25;;;9.00;91.48
56671;BME280;42545;50.054;8.306;2023-05-25T04:52:10;100705.75;;;9.08;91.07
56671;BME280;42545;50.054;8.306;2023-05-25T04:54:37;100696.28;;;9.13;90.70
56671;BME280;42545;50.054;8.306;2023-05-25T04:57:04;100699.97;;;9.18;90.55
56671;BME280;42545;50.054;8.306;2023-05-25T04:59:32;100701.03;;;9.25;90.14
56671;BME280;42545;50.054;8.306;2023-05-25T05:01:59;100707.34;;;9.30;90.24
56671;BME280;42545;50.054;8.306;2023-05-25T05:04:26;100708.44;;;9.37;89.60
56671;BME280;42545;50.054;8.306;2023-05-25T05:06:52;100704.22;;;9.42;89.09
56671;BME280;42545;50.054;8.306;2023-05-25T05:09:20;100712.41;;;9.51;88.80
56671;BME280;42545;50.054;8.306;2023-05-25T05:11:46;100720.53;;;9.59;88.64
56671;BME280;42545;50.054;8.306;2023-05-25T05:14:13;100735.69;;;9.66;88.64
56671;BME280;42545;50.054;8.306;2023-05-25T05:16:41;100727.13;;;9.73;88.00
56671;BME280;42545;50.054;8.306;2023-05-25T05:19:08;100734.38;;;9.80;87.68
56671;BME280;42545;50.054;8.306;2023-05-25T05:21:35;100733.66;;;9.86;87.66
56671;BME280;42545;50.054;8.306;2023-05-25T05:24:01;100728.53;;;9.91;87.21
56671;BME280;42545;50.054;8.306;2023-05-25T05:26:28;100728.66;;;9.95;87.32
56671;BME280;42545;50.054;8.306;2023-05-25T05:28:54;100737.72;;;10.05;87.18
56671;BME280;42545;50.054;8.306;2023-05-25T05:31:21;100745.88;;;10.13;87.01
56671;BME280;42545;50.054;8.306;2023-05-25T05:33:49;100747.84;;;10.20;87.22
56671;BME280;42545;50.054;8.306;2023-05-25T05:36:16;100742.75;;;10.26;87.01
56671;BME280;42545;50.054;8.306;2023-05-25T05:38:43;100744.69;;;10.32;86.67
56671;BME280;42545;50.054;8.306;2023-05-25T05:41:11;100751.16;;;10.43;86.19
56671;BME280;42545;50.054;8.306;2023-05-25T05:43:39;100741.75;;;10.51;86.10
56671;BME280;42545;50.054;8.306;2023-05-25T05:46:07;100741.94;;;10.59;85.53
56671;BME280;42545;50.054;8.306;2023-05-25T05:48:34;100734.97;;;10.61;85.06
56671;BME280;42545;50.054;8.306;2023-05-25T05:51:02;100747.66;;;10.76;84.85
56671;BME280;42545;50.054;8.306;2023-05-25T05:53:29;100749.63;;;10.83;84.76
56671;BME280;42545;50.054;8.306;2023-05-25T05:55:57;100755.13;;;10.92;84.49
56671;BME280;42545;50.054;8.306;2023-05-25T05:58:24;100758.88;;;11.01;84.59
56671;BME280;42545;50.054;8.306;2023-05-25T06:00:52;100762.59;;;11.09;83.87
56671;BME280;42545;50.054;8.306;2023-05-25T06:03:20;100753.94;;;11.14;83.47
56671;BME280;42545;50.054;8.306;2023-05-25T06:05:47;100752.34;;;11.21;82.64
56671;BME280;42545;50.054;8.306;2023-05-25T06:08:15;100750.81;;;11.31;82.24
56671;BME280;42545;50.054;8.306;2023-05-25T06:10:42;100750.19;;;11.41;81.59
56671;BME280;42545;50.054;8.306;2023-05-25T06:13:09;100757.47;;;11.51;80.64
56671;BME280;42545;50.054;8.306;2023-05-25T06:15:36;100748.91;;;11.62;80.06
56671;BME280;42545;50.054;8.306;2023-05-25T06:18:02;100755.38;;;11.74;80.21
56671;BME280;42545;50.054;8.306;2023-05-25T06:20:29;100760.81;;;11.82;79.54
56671;BME280;42545;50.054;8.306;2023-05-25T06:22:56;100757.47;;;11.89;79.38
56671;BME280;42545;50.054;8.306;2023-05-25T06:25:24;100765.56;;;11.94;78.77
56671;BME280;42545;50.054;8.306;2023-05-25T06:27:50;100771.00;;;12.02;77.87
56671;BME280;42545;50.054;8.306;2023-05-25T06:30:16;100760.53;;;12.08;77.75
56671;BME280;42545;50.054;8.306;2023-05-25T06:32:43;100763.34;;;12.14;77.18
56671;BME280;42545;50.054;8.306;2023-05-25T06:35:10;100766.09;;;12.20;77.51
56671;BME280;42545;50.054;8.306;2023-05-25T06:37:44;100772.38;;;12.25;76.80
56671;BME280;42545;50.054;8.306;2023-05-25T06:40:11;100772.44;;;12.27;77.10
56671;BME280;42545;50.054;8.306;2023-05-25T06:42:39;100774.34;;;12.34;77.44
56671;BME280;42545;50.054;8.306;2023-05-25T06:45:06;100769.09;;;12.37;76.16
56671;BME280;42545;50.054;8.306;2023-05-25T06:47:33;100771.84;;;12.42;76.61
56671;BME280;42545;50.054;8.306;2023-05-25T06:50:00;100767.59;;;12.50;76.32
56671;BME280;42545;50.054;8.306;2023-05-25T06:52:29;100770.47;;;12.62;76.44
56671;BME280;42545;50.054;8.306;2023-05-25T06:54:56;100771.53;;;12.71;75.89
56671;BME280;42545;50.054;8.306;2023-05-25T06:57:23;100755.69;;;12.74;75.82
56671;BME280;42545;50.054;8.306;2023-05-25T06:59:51;100771.94;;;12.94;75.78
56671;BME280;42545;50.054;8.306;2023-05-25T07:02:17;100774.72;;;13.01;73.53
56671;BME280;42545;50.054;8.306;2023-05-25T07:04:45;100775.81;;;13.11;74.70
56671;BME280;42545;50.054;8.306;2023-05-25T07:07:11;100769.78;;;13.20;73.88
56671;BME280;42545;50.054;8.306;2023-05-25T07:09:38;100760.97;;;13.22;73.24
56671;BME280;42545;50.054;8.306;2023-05-25T07:12:06;100768.25;;;13.34;72.42
56671;BME280;42545;50.054;8.306;2023-05-25T07:14:34;100768.47;;;13.46;73.10
56671;BME280;42545;50.054;8.306;2023-05-25T07:17:02;100775.69;;;13.55;71.69
56671;BME280;42545;50.054;8.306;2023-05-25T07:19:29;100765.25;;;13.68;71.81
56671;BME280;42545;50.054;8.306;2023-05-25T07:21:56;100769.78;;;13.73;70.58
56671;BME280;42545;50.054;8.306;2023-05-25T07:24:22;100772.53;;;13.81;70.65
56671;BME280;42545;50.054;8.306;2023-05-25T07:26:49;100762.03;;;13.89;71.06
56671;BME280;42545;50.054;8.306;2023-05-25T07:29:16;100766.63;;;14.03;70.90
56671;BME280;42545;50.054;8.306;2023-05-25T07:31:43;100769.47;;;14.16;68.63
56671;BME280;42545;50.054;8.306;2023-05-25T07:34:11;100774.81;;;14.19;64.91
56671;BME280;42545;50.054;8.306;2023-05-25T07:36:38;100773.16;;;14.29;65.14
56671;BME280;42545;50.054;8.306;2023-05-25T07:39:04;100772.44;;;14.39;63.07
56671;BME280;42545;50.054;8.306;2023-05-25T07:41:32;100772.50;;;14.47;61.93
56671;BME280;42545;50.054;8.306;2023-05-25T07:43:59;100772.66;;;14.57;58.90
56671;BME280;42545;50.054;8.306;2023-05-25T07:46:25;100772.75;;;14.62;57.88
56671;BME280;42545;50.054;8.306;2023-05-25T07:48:52;100770.13;;;14.67;58.22
56671;BME280;42545;50.054;8.306;2023-05-25T07:51:21;100767.53;;;14.71;57.45
56671;BME280;42545;50.054;8.306;2023-05-25T07:53:50;100773.91;;;14.89;57.66
56671;BME280;42545;50.054;8.306;2023-05-25T07:56:18;100773.16;;;15.04;57.53
56671;BME280;42545;50.054;8.306;2023-05-25T07:58:44;100766.28;;;15.24;56.93
56671;BME280;42545;50.054;8.306;2023-05-25T08:01:11;100769.09;;;15.43;56.74
56671;BME280;42545;50.054;8.306;2023-05-25T08:03:38;100770.91;;;15.48;55.60
56671;BME280;42545;50.054;8.306;2023-05-25T08:06:05;100754.06;;;15.52;54.76
56671;BME280;42545;50.054;8.306;2023-05-25T08:08:33;100755.88;;;15.58;54.98
56671;BME280;42545;50.054;8.306;2023-05-25T08:11:00;100759.44;;;15.60;54.37
56671;BME280;42545;50.054;8.306;2023-05-25T08:13:27;100755.03;;;15.59;54.18
56671;BME280;42545;50.054;8.306;2023-05-25T08:15:53;100755.94;;;15.66;55.05
56671;BME280;42545;50.054;8.306;2023-05-25T08:18:20;100764.00;;;15.73;54.96
56671;BME280;42545;50.054;8.306;2023-05-25T08:20:47;100764.00;;;15.76;54.32
56671;BME280;42545;50.054;8.306;2023-05-25T08:23:14;100759.66;;;15.85;52.94
56671;BME280;42545;50.054;8.306;2023-05-25T08:25:42;100760.53;;;15.85;52.56
56671;BME280;42545;50.054;8.306;2023-05-25T08:28:08;100751.69;;;15.89;51.58
56671;BME280;42545;50.054;8.306;2023-05-25T08:30:35;100756.09;;;15.87;50.95
56671;BME280;42545;50.054;8.306;2023-05-25T08:33:02;100743.72;;;15.94;50.47
56671;BME280;42545;50.054;8.306;2023-05-25T08:35:29;100755.28;;;15.96;50.81
56671;BME280;42545;50.054;8.306;2023-05-25T08:37:56;100751.75;;;16.03;52.00
56671;BME280;42545;50.054;8.306;2023-05-25T08:40:25;100760.66;;;16.11;51.82
56671;BME280;42545;50.054;8.306;2023-05-25T08:42:53;100752.72;;;16.21;51.33
56671;BME280;42545;50.054;8.306;2023-05-25T08:45:20;100762.53;;;16.29;51.13
56671;BME280;42545;50.054;8.306;2023-05-25T08:47:47;100767.03;;;16.40;51.42
56671;BME280;42545;50.054;8.306;2023-05-25T08:50:17;100761.72;;;16.50;51.01
56671;BME280;42545;50.054;8.306;2023-05-25T08:52:44;100762.63;;;16.60;50.61
56671;BME280;42545;50.054;8.306;2023-05-25T08:55:11;100768.88;;;16.70;50.27
56671;BME280;42545;50.054;8.306;2023-05-25T08:57:45;100760.94;;;16.78;49.55
56671;BME280;42545;50.054;8.306;2023-05-25T09:00:15;100761.81;;;16.80;49.90
56671;BME280;42545;50.054;8.306;2023-05-25T09:02:49;100766.31;;;16.88;50.00
56671;BME280;42545;50.054;8.306;2023-05-25T09:05:16;100763.63;;;16.93;49.28
56671;BME280;42545;50.054;8.306;2023-05-25T09:07:44;100761.84;;;16.95;50.31
56671;BME280;42545;50.054;8.306;2023-05-25T09:10:13;100758.34;;;17.07;51.41
56671;BME280;42545;50.054;8.306;2023-05-25T09:12:41;100758.34;;;17.15;49.89
56671;BME280;42545;50.054;8.306;2023-05-25T09:15:09;100752.13;;;17.14;49.50
56671;BME280;42545;50.054;8.306;2023-05-25T09:17:38;100757.44;;;17.16;51.10
56671;BME280;42545;50.054;8.306;2023-05-25T09:20:07;100758.31;;;17.28;50.71
56671;BME280;42545;50.054;8.306;2023-05-25T09:22:35;100761.00;;;17.36;50.39
56671;BME280;42545;50.054;8.306;2023-05-25T09:25:05;100757.44;;;17.45;50.09
56671;BME280;42545;50.054;8.306;2023-05-25T09:27:34;100764.56;;;17.60;49.46
56671;BME280;42545;50.054;8.306;2023-05-25T09:30:03;100768.13;;;17.63;49.63
56671;BME280;42545;50.054;8.306;2023-05-25T09:32:29;100769.88;;;17.66;49.42
56671;BME280;42545;50.054;8.306;2023-05-25T09:35:05;100769.00;;;17.58;49.40
56671;BME280;42545;50.054;8.306;2023-05-25T09:37:32;100765.44;;;17.59;50.63
56671;BME280;42545;50.054;8.306;2023-05-25T09:39:59;100766.34;;;17.52;49.24
56671;BME280;42545;50.054;8.306;2023-05-25T09:42:25;100775.25;;;17.49;49.68
56671;BME280;42545;50.054;8.306;2023-05-25T09:44:52;100777.00;;;17.52;49.90
56671;BME280;42545;50.054;8.306;2023-05-25T09:47:18;100778.78;;;17.62;49.71
56671;BME280;42545;50.054;8.306;2023-05-25T09:49:45;100776.97;;;17.68;49.67
56671;BME280;42545;50.054;8.306;2023-05-25T09:52:16;100770.75;;;17.80;49.97
56671;BME280;42545;50.054;8.306;2023-05-25T09:54:44;100765.41;;;17.85;49.25
56671;BME280;42545;50.054;8.306;2023-05-25T09:57:10;100769.00;;;17.85;49.75
56671;BME280;42545;50.054;8.306;2023-05-25T09:59:37;100762.75;;;17.85;50.24
56671;BME280;42545;50.054;8.306;2023-05-25T10:02:05;100767.19;;;17.94;50.50
56671;BME280;42545;50.054;8.306;2023-05-25T10:04:31;100771.66;;;17.96;50.16
56671;BME280;42545;50.054;8.306;2023-05-25T10:06:59;100764.50;;;18.06;50.82
56671;BME280;42545;50.054;8.306;2023-05-25T10:09:28;100770.69;;;18.20;50.05
56671;BME280;42545;50.054;8.306;2023-05-25T10:11:55;100773.34;;;18.22;49.53
56671;BME280;42545;50.054;8.306;2023-05-25T10:14:25;100764.47;;;18.20;49.83
56671;BME280;42545;50.054;8.306;2023-05-25T10:16:54;100782.19;;;18.35;49.78
56671;BME280;42545;50.054;8.306;2023-05-25T10:19:25;100773.28;;;18.42;49.16
56671;BME280;42545;50.054;8.306;2023-05-25T10:21:57;100775.91;;;18.45;48.95
56671;BME280;42545;50.054;8.306;2023-05-25T10:24:34;100772.34;;;18.46;48.96
56671;BME280;42545;50.054;8.306;2023-05-25T10:27:05;100770.50;;;18.56;48.98
56671;BME280;42545;50.054;8.306;2023-05-25T10:29:34;100769.59;;;18.68;48.79
56671;BME280;42545;50.054;8.306;2023-05-25T10:32:02;100781.09;;;18.74;48.75
56671;BME280;42545;50.054;8.306;2023-05-25T10:34:30;100772.19;;;18.78;48.96
56671;BME280;42545;50.054;8.306;2023-05-25T10:36:57;100765.97;;;18.82;48.06
56671;BME280;42545;50.054;8.306;2023-05-25T10:39:25;100770.38;;;18.83;48.28
56671;BME280;42545;50.054;8.306;2023-05-25T10:41:53;100766.81;;;18.80;47.55
56671;BME280;42545;50.054;8.306;2023-05-25T10:44:20;100763.28;;;18.84;47.75
56671;BME280;42545;50.054;8.306;2023-05-25T10:46:48;100755.19;;;18.90;47.77
56671;BME280;42545;50.054;8.306;2023-05-25T10:49:24;100754.31;;;18.88;47.41
56671;BME280;42545;50.054;8.306;2023-05-25T10:51:57;100759.63;;;18.93;47.82
56671;BME280;42545;50.054;8.306;2023-05-25T10:54:28;100751.53;;;19.04;47.97
56671;BME280;42545;50.054;8.306;2023-05-25T10:57:10;100745.31;;;19.01;46.44
56671;BME280;42545;50.054;8.306;2023-05-25T10:59:41;100747.97;;;19.08;47.75
56671;BME280;42545;50.054;8.306;2023-05-25T11:02:10;100749.66;;;19.16;47.73
56671;BME280;42545;50.054;8.306;2023-05-25T11:04:36;100748.75;;;19.22;47.47
56671;BME280;42545;50.054;8.306;2023-05-25T11:07:05;100750.50;;;19.23;46.82
56671;BME280;42545;50.054;8.306;2023-05-25T11:09:40;100738.84;;;19.29;48.09
56671;BME280;42545;50.054;8.306;2023-05-25T11:12:17;100739.72;;;19.35;47.06
56671;BME280;42545;50.054;8.306;2023-05-25T11:14:44;100736.09;;;19.38;47.45
56671;BME280;42545;50.054;8.306;2023-05-25T11:17:12;100731.63;;;19.40;46.98
56671;BME280;42545;50.054;8.306;2023-05-25T11:19:43;100727.19;;;19.36;47.03
56671;BME280;42545;50.054;8.306;2023-05-25T11:22:12;100734.25;;;19.46;47.50
56671;BME280;42545;50.054;8.306;2023-05-25T11:24:41;100730.56;;;19.58;47.37
56671;BME280;42545;50.054;8.306;2023-05-25T11:27:11;100729.63;;;19.64;46.44
56671;BME280;42545;50.054;8.306;2023-05-25T11:29:38;100732.22;;;19.74;46.83
56671;BME280;42545;50.054;8.306;2023-05-25T11:32:10;100718.78;;;19.81;45.96
56671;BME280;42545;50.054;8.306;2023-05-25T11:34:39;100727.63;;;19.87;46.20
56671;BME280;42545;50.054;8.306;2023-05-25T11:37:11;100726.63;;;19.94;45.98
56671;BME280;42545;50.054;8.306;2023-05-25T11:39:40;100723.06;;;19.95;44.73
56671;BME280;42545;50.054;8.306;2023-05-25T11:42:08;100722.22;;;19.92;45.21
56671;BME280;42545;50.054;8.306;2023-05-25T11:44:36;100721.28;;;19.96;45.47
56671;BME280;42545;50.054;8.306;2023-05-25T11:47:06;100711.44;;;19.96;45.03
56671;BME280;42545;50.054;8.306;2023-05-25T11:49:34;100712.28;;;19.98;44.35
56671;BME280;42545;50.054;8.306;2023-05-25T11:52:04;100706.94;;;20.00;43.90
56671;BME280;42545;50.054;8.306;2023-05-25T11:54:31;100707.78;;;20.04;44.75
56671;BME280;42545;50.054;8.306;2023-05-25T11:56:59;100702.28;;;20.14;44.00
56671;BME280;42545;50.054;8.306;2023-05-25T11:59:26;100701.34;;;20.19;43.65
56671;BME280;42545;50.054;8.306;2023-05-25T12:01:58;100705.72;;;20.24;43.27
56671;BME280;42545;50.054;8.306;2023-05-25T12:04:26;100704.00;;;20.20;42.93
56671;BME280;42545;50.054;8.306;2023-05-25T12:07:00;100698.66;;;20.19;42.23
56671;BME280;42545;50.054;8.306;2023-05-25T12:09:27;100700.38;;;20.24;42.88
56671;BME280;42545;50.054;8.306;2023-05-25T12:11:53;100693.13;;;20.32;43.63
56671;BME280;42545;50.054;8.306;2023-05-25T12:14:20;100690.28;;;20.45;43.24
56671;BME280;42545;50.054;8.306;2023-05-25T12:16:48;100694.78;;;20.43;42.86
56671;BME280;42545;50.054;8.306;2023-05-25T12:19:17;100691.31;;;20.34;42.57
56671;BME280;42545;50.054;8.306;2023-05-25T12:21:44;100685.09;;;20.31;44.11
56671;BME280;42545;50.054;8.306;2023-05-25T12:24:12;100693.03;;;20.39;43.85
56671;BME280;42545;50.054;8.306;2023-05-25T12:26:48;100684.00;;;20.44;43.18
56671;BME280;42545;50.054;8.306;2023-05-25T12:29:16;100686.78;;;20.40;42.59
56671;BME280;42545;50.054;8.306;2023-05-25T12:31:42;100673.34;;;20.41;42.04
56671;BME280;42545;50.054;8.306;2023-05-25T12:34:10;100685.78;;;20.48;42.28
56671;BME280;42545;50.054;8.306;2023-05-25T12:36:41;100682.94;;;20.59;42.54
56671;BME280;42545;50.054;8.306;2023-05-25T12:39:09;100678.31;;;20.70;42.22
56671;BME280;42545;50.054;8.306;2023-05-25T12:41:47;100683.66;;;20.72;42.27
56671;BME280;42545;50.054;8.306;2023-05-25T12:44:19;100673.84;;;20.69;42.48
56671;BME280;42545;50.054;8.306;2023-05-25T12:46:47;100678.22;;;20.75;42.60
56671;BME280;42545;50.054;8.306;2023-05-25T12:49:26;100686.13;;;20.86;42.98
56671;BME280;42545;50.054;8.306;2023-05-25T12:51:54;100678.97;;;20.86;43.11
56671;BME280;42545;50.054;8.306;2023-05-25T12:54:35;100669.28;;;20.78;43.21
56671;BME280;42545;50.054;8.306;2023-05-25T12:57:02;100662.28;;;20.67;43.09
56671;BME280;42545;50.054;8.306;2023-05-25T12:59:30;100668.44;;;20.72;42.79